Terminal Aerodrome Forecast
Issued by NWS Portland, OR

Home | Current Version | Previous Version | Text Only | Print | Product List | Glossary On
Versions: 1 2 3 4 5 6 7 8 9 10 11 12 13 14 15 16 17 18 19 20 21 22 23 24 25
000
FTUS46 KPQR 161231 AAA
TAFEUG
TAF AMD
KEUG 161231Z 1613/1712 00000KT 2SM BR BKN003 BKN050
     FM161800 17003KT 3SM BR BKN010
     FM162300 20004KT P6SM BKN015 OVC050
     FM170700 17004KT 2SM BR BKN002=

USA.gov is the U.S. government's official web portal to all federal, state and local government web resources and services.